Time;durP1;ratioP1;P1;durP2;ratioP2;P2;SDS_P1;SDS_P2;PMS_P1;PMS_P2;Temp;Humidity;BMP_temperature;BMP_pressure;BME280_temperature;BME280_humidity;BME280_pressure;Samples;Min_cycle;Max_cycle;Signal;HPM_P1;HPM_P2
2021/09/25 00:00:34;;;;;;;1154.13;999.90;;;;;;;;;;4996565;28;20033;-75
2021/09/25 00:03:01;;;;;;;1154.68;999.90;;;;;;;;;;4996430;28;20026;-73
2021/09/25 00:05:33;;;;;;;1154.55;999.90;;;;;;;;;;5018160;28;20421;-73
2021/09/25 00:07:59;;;;;;;1156.80;999.90;;;;;;;;;;4998956;28;20026;-74
2021/09/25 00:10:26;;;;;;;1156.03;999.90;;;;;;;;;;4998577;28;20041;-74
2021/09/25 00:12:53;;;;;;;1161.57;999.90;;;;;;;;;;4996549;28;20026;-72
2021/09/25 00:15:19;;;;;;;1162.80;999.90;;;;;;;;;;4997998;28;20053;-71
2021/09/25 00:17:46;;;;;;;1155.22;999.90;;;;;;;;;;4998284;28;20557;-73
2021/09/25 00:20:12;;;;;;;1156.18;999.90;;;;;;;;;;5002119;28;20076;-72
2021/09/25 00:22:38;;;;;;;1160.03;999.90;;;;;;;;;;5003683;28;20056;-73
2021/09/25 00:25:04;;;;;;;1155.40;999.90;;;;;;;;;;4998842;28;20026;-72
2021/09/25 00:27:31;;;;;;;1155.07;999.90;;;;;;;;;;5000622;28;20022;-74
2021/09/25 00:29:57;;;;;;;1158.47;999.90;;;;;;;;;;5002234;28;20055;-74
2021/09/25 00:32:23;;;;;;;1161.85;999.90;;;;;;;;;;4999678;28;20111;-74
2021/09/25 00:34:49;;;;;;;1161.30;999.90;;;;;;;;;;4999743;28;20129;-73
2021/09/25 00:37:15;;;;;;;1156.93;999.90;;;;;;;;;;5000347;28;20109;-74
2021/09/25 00:39:41;;;;;;;1161.18;999.90;;;;;;;;;;5001687;28;20030;-73
2021/09/25 00:42:07;;;;;;;1165.65;999.90;;;;;;;;;;5000023;28;20034;-72
2021/09/25 00:44:34;;;;;;;1163.35;999.90;;;;;;;;;;5000729;28;20025;-72
2021/09/25 00:47:00;;;;;;;1157.78;999.90;;;;;;;;;;5000623;28;20120;-74
2021/09/25 00:49:26;;;;;;;1155.45;999.90;;;;;;;;;;5002579;28;20072;-73
2021/09/25 00:51:52;;;;;;;1160.32;999.90;;;;;;;;;;4999637;28;20029;-73
2021/09/25 00:54:19;;;;;;;1160.82;999.90;;;;;;;;;;5002822;28;20653;-74
2021/09/25 00:56:45;;;;;;;1158.97;999.90;;;;;;;;;;5002589;28;20030;-71
2021/09/25 00:59:12;;;;;;;1156.97;999.90;;;;;;;;;;5002364;28;20076;-74
2021/09/25 01:01:39;;;;;;;1154.70;999.90;;;;;;;;;;4997305;28;20343;-74
2021/09/25 01:04:05;;;;;;;1147.60;999.90;;;;;;;;;;5003978;28;20048;-73
2021/09/25 01:06:31;;;;;;;1153.70;999.90;;;;;;;;;;5000588;28;20274;-73
2021/09/25 01:08:57;;;;;;;1157.13;999.90;;;;;;;;;;5000846;28;20044;-73
2021/09/25 01:11:23;;;;;;;1154.18;999.90;;;;;;;;;;5001355;28;20030;-72
2021/09/25 01:13:49;;;;;;;1154.45;999.90;;;;;;;;;;5002327;28;20034;-75
2021/09/25 01:16:15;;;;;;;1155.57;999.90;;;;;;;;;;5001524;28;20076;-73
2021/09/25 01:18:41;;;;;;;1156.72;999.90;;;;;;;;;;5000173;28;20036;-74
2021/09/25 01:21:07;;;;;;;1160.43;999.90;;;;;;;;;;5001768;28;20033;-72
2021/09/25 01:23:34;;;;;;;1163.72;999.90;;;;;;;;;;5001060;28;20026;-72
2021/09/25 01:26:00;;;;;;;1158.85;999.90;;;;;;;;;;5000352;28;20026;-72
2021/09/25 01:28:27;;;;;;;1154.95;999.90;;;;;;;;;;4999877;28;20069;-73
2021/09/25 01:30:53;;;;;;;1152.70;999.90;;;;;;;;;;4998127;28;20250;-73
2021/09/25 01:33:29;;;;;;;1158.45;999.90;;;;;;;;;;4999133;28;20038;-73
2021/09/25 01:35:55;;;;;;;1158.55;999.90;;;;;;;;;;4998039;28;20030;-74
2021/09/25 01:38:21;;;;;;;1158.75;999.90;;;;;;;;;;4999926;28;20034;-72
2021/09/25 01:40:47;;;;;;;1158.63;999.90;;;;;;;;;;4999840;28;20290;-72
2021/09/25 01:43:15;;;;;;;1159.90;999.90;;;;;;;;;;5001939;28;20087;-72
2021/09/25 01:45:41;;;;;;;1150.50;999.90;;;;;;;;;;5001532;28;20505;-72
2021/09/25 01:48:07;;;;;;;1162.40;999.90;;;;;;;;;;5000951;28;20066;-73
2021/09/25 01:50:33;;;;;;;1154.63;999.90;;;;;;;;;;5000470;28;20032;-72
2021/09/25 01:52:59;;;;;;;1154.63;999.90;;;;;;;;;;5000690;28;20464;-71
2021/09/25 01:55:25;;;;;;;1156.07;999.90;;;;;;;;;;5003649;28;20048;-72
2021/09/25 01:57:51;;;;;;;1150.22;999.90;;;;;;;;;;5005373;28;20025;-73
2021/09/25 02:00:17;;;;;;;1155.50;999.90;;;;;;;;;;5004634;28;20049;-72
2021/09/25 02:02:43;;;;;;;1155.68;999.90;;;;;;;;;;4995302;28;20026;-72
2021/09/25 02:05:11;;;;;;;1146.50;999.90;;;;;;;;;;5000142;28;20028;-74
2021/09/25 02:07:37;;;;;;;1148.78;999.90;;;;;;;;;;4998820;28;20030;-73
2021/09/25 02:10:03;;;;;;;1150.63;999.90;;;;;;;;;;4998016;28;20060;-73
2021/09/25 02:12:29;;;;;;;1149.22;999.90;;;;;;;;;;5000497;28;20038;-74
2021/09/25 02:14:55;;;;;;;1152.25;999.90;;;;;;;;;;5000604;28;20040;-73
2021/09/25 02:17:21;;;;;;;1147.63;999.90;;;;;;;;;;4999269;28;20053;-72
2021/09/25 02:19:48;;;;;;;1150.28;999.90;;;;;;;;;;4998097;28;20036;-73
2021/09/25 02:22:14;;;;;;;1146.72;999.90;;;;;;;;;;5016115;28;20367;-73
2021/09/25 02:24:40;;;;;;;1144.18;999.90;;;;;;;;;;4998773;28;20053;-73
2021/09/25 02:27:06;;;;;;;1148.28;999.90;;;;;;;;;;4997942;28;20026;-71
2021/09/25 02:29:32;;;;;;;1138.93;999.90;;;;;;;;;;4998314;28;20029;-73
2021/09/25 02:31:58;;;;;;;1142.60;999.90;;;;;;;;;;4997676;28;20473;-72
2021/09/25 02:34:24;;;;;;;1143.05;999.90;;;;;;;;;;5030384;28;20033;-72
2021/09/25 02:36:50;;;;;;;1141.85;999.90;;;;;;;;;;4998426;28;20033;-72
2021/09/25 02:39:16;;;;;;;1141.55;999.90;;;;;;;;;;5000852;28;20037;-73
2021/09/25 02:41:42;;;;;;;1140.10;999.90;;;;;;;;;;4997494;28;20191;-73
2021/09/25 02:44:08;;;;;;;1141.35;999.90;;;;;;;;;;4995342;28;20034;-73
2021/09/25 02:46:34;;;;;;;1147.68;999.90;;;;;;;;;;4998475;28;20117;-73
2021/09/25 02:49:00;;;;;;;1138.38;999.90;;;;;;;;;;4999433;28;20117;-72
2021/09/25 02:51:26;;;;;;;1141.72;999.90;;;;;;;;;;4997259;28;20038;-74
2021/09/25 02:53:52;;;;;;;1142.13;999.90;;;;;;;;;;4959998;28;1067046;-73
2021/09/25 02:56:18;;;;;;;1134.43;999.90;;;;;;;;;;4999379;28;20507;-73
2021/09/25 02:58:44;;;;;;;1134.55;999.90;;;;;;;;;;5010264;28;20381;-73
2021/09/25 03:01:10;;;;;;;1138.22;999.90;;;;;;;;;;4995190;28;20367;-73
2021/09/25 03:03:36;;;;;;;1133.63;999.90;;;;;;;;;;4998699;28;20404;-71
2021/09/25 03:06:02;;;;;;;1135.97;999.90;;;;;;;;;;4998071;28;20092;-72
2021/09/25 03:08:28;;;;;;;1139.75;999.90;;;;;;;;;;4998299;28;20022;-75
2021/09/25 03:10:54;;;;;;;1135.28;999.90;;;;;;;;;;5000783;28;20049;-73
2021/09/25 03:13:20;;;;;;;1144.25;999.90;;;;;;;;;;4998203;28;20042;-74
2021/09/25 03:15:46;;;;;;;1140.18;999.90;;;;;;;;;;4998144;28;20029;-73
2021/09/25 03:18:12;;;;;;;1135.60;999.90;;;;;;;;;;4991902;28;20026;-72
2021/09/25 03:20:37;;;;;;;1140.45;999.90;;;;;;;;;;5010675;28;20622;-73
2021/09/25 03:23:03;;;;;;;1134.88;999.90;;;;;;;;;;4999102;28;20061;-72
2021/09/25 03:25:29;;;;;;;1134.80;999.90;;;;;;;;;;4999101;28;20034;-73
2021/09/25 03:27:55;;;;;;;1133.93;999.90;;;;;;;;;;4997785;28;20033;-73
2021/09/25 03:30:22;;;;;;;1135.93;999.90;;;;;;;;;;4997521;28;20105;-72
2021/09/25 03:32:48;;;;;;;1131.18;999.90;;;;;;;;;;4995626;28;20034;-72
2021/09/25 03:35:14;;;;;;;1134.25;999.90;;;;;;;;;;4998772;28;20164;-71
2021/09/25 03:37:40;;;;;;;1128.88;999.90;;;;;;;;;;4999457;28;20034;-72
2021/09/25 03:40:07;;;;;;;1130.72;999.90;;;;;;;;;;4999129;28;20043;-74
2021/09/25 03:42:33;;;;;;;1135.75;999.90;;;;;;;;;;5012028;28;20341;-72
2021/09/25 03:44:59;;;;;;;1134.35;999.90;;;;;;;;;;4998394;28;20030;-72
2021/09/25 03:47:25;;;;;;;1129.65;999.90;;;;;;;;;;4997574;28;20113;-74
2021/09/25 03:49:51;;;;;;;1126.50;999.90;;;;;;;;;;5000197;28;20022;-74
2021/09/25 03:52:17;;;;;;;1125.72;999.90;;;;;;;;;;4998714;28;20037;-74
2021/09/25 03:54:43;;;;;;;1130.13;999.90;;;;;;;;;;4995557;28;20026;-72
2021/09/25 03:57:09;;;;;;;1130.35;999.90;;;;;;;;;;4994929;28;20045;-72
2021/09/25 03:59:35;;;;;;;1138.03;999.90;;;;;;;;;;4998792;28;20029;-73
2021/09/25 04:02:01;;;;;;;1134.72;999.90;;;;;;;;;;4994311;28;20442;-71
2021/09/25 04:04:27;;;;;;;1131.47;999.90;;;;;;;;;;4997730;28;20055;-72
2021/09/25 04:06:53;;;;;;;1132.15;999.90;;;;;;;;;;5000804;28;20018;-72
2021/09/25 04:09:19;;;;;;;1126.60;999.90;;;;;;;;;;4994880;28;20117;-75
2021/09/25 04:11:48;;;;;;;1132.88;999.90;;;;;;;;;;4997720;28;20109;-73
2021/09/25 04:14:14;;;;;;;1125.25;999.90;;;;;;;;;;4998030;28;20022;-74
2021/09/25 04:16:40;;;;;;;1126.95;999.90;;;;;;;;;;4995149;28;20440;-73
2021/09/25 04:19:06;;;;;;;1134.30;999.90;;;;;;;;;;5012385;28;20056;-73
2021/09/25 04:21:32;;;;;;;1129.53;999.90;;;;;;;;;;4997040;28;20034;-75
2021/09/25 04:23:58;;;;;;;1125.82;999.90;;;;;;;;;;4997954;28;20030;-72
2021/09/25 04:26:24;;;;;;;1129.10;999.90;;;;;;;;;;4998822;28;21017;-72
2021/09/25 04:28:50;;;;;;;1130.30;999.90;;;;;;;;;;4996002;28;20026;-73
2021/09/25 04:31:16;;;;;;;1123.57;999.90;;;;;;;;;;4995404;28;20034;-74
2021/09/25 04:33:42;;;;;;;1131.70;999.90;;;;;;;;;;4997766;28;20104;-72
2021/09/25 04:36:08;;;;;;;1129.18;999.90;;;;;;;;;;4998650;28;20033;-71
2021/09/25 04:38:34;;;;;;;1123.88;999.90;;;;;;;;;;4996960;28;20036;-74
2021/09/25 04:41:00;;;;;;;1129.05;999.90;;;;;;;;;;4996792;28;21178;-71
2021/09/25 04:43:26;;;;;;;1125.63;999.90;;;;;;;;;;4998809;28;20080;-73
2021/09/25 04:45:52;;;;;;;1131.07;999.90;;;;;;;;;;4996356;28;20121;-73
2021/09/25 04:48:18;;;;;;;1123.85;999.90;;;;;;;;;;4997497;28;20017;-74
2021/09/25 04:50:44;;;;;;;1125.78;999.90;;;;;;;;;;4995798;28;20369;-73
2021/09/25 04:53:12;;;;;;;1120.35;999.90;;;;;;;;;;5012800;28;20508;-72
2021/09/25 04:55:39;;;;;;;1123.30;999.90;;;;;;;;;;4997737;28;20029;-72
2021/09/25 04:58:05;;;;;;;1136.60;999.90;;;;;;;;;;4997632;28;20403;-72
2021/09/25 05:00:32;;;;;;;1126.93;999.90;;;;;;;;;;5007940;28;20136;-73
2021/09/25 05:02:58;;;;;;;1120.22;999.90;;;;;;;;;;4993541;28;20037;-73
2021/09/25 05:05:24;;;;;;;1125.45;999.90;;;;;;;;;;4998850;28;20021;-74
2021/09/25 05:07:50;;;;;;;1116.40;999.90;;;;;;;;;;5004601;28;20084;-73
2021/09/25 05:10:16;;;;;;;1122.20;999.90;;;;;;;;;;4999721;28;20034;-72
2021/09/25 05:12:43;;;;;;;1126.95;999.90;;;;;;;;;;4999660;28;20038;-72
2021/09/25 05:15:09;;;;;;;1128.57;999.90;;;;;;;;;;4998500;28;20403;-73
2021/09/25 05:17:35;;;;;;;1123.47;999.90;;;;;;;;;;5001601;28;20377;-72
2021/09/25 05:20:02;;;;;;;1125.45;999.90;;;;;;;;;;5001926;28;20049;-73
2021/09/25 05:22:28;;;;;;;1125.88;999.90;;;;;;;;;;4998045;28;20026;-74
2021/09/25 05:24:54;;;;;;;1129.20;999.90;;;;;;;;;;4999714;28;20498;-73
2021/09/25 05:27:20;;;;;;;1124.38;999.90;;;;;;;;;;5000168;28;20238;-73
2021/09/25 05:29:46;;;;;;;1123.95;999.90;;;;;;;;;;5000467;28;20030;-74
2021/09/25 05:32:12;;;;;;;1122.13;999.90;;;;;;;;;;5005249;28;20193;-72
2021/09/25 05:34:41;;;;;;;1121.35;999.90;;;;;;;;;;5000476;28;20534;-71
2021/09/25 05:37:07;;;;;;;1116.13;999.72;;;;;;;;;;5001320;28;20641;-73
2021/09/25 05:39:34;;;;;;;1119.90;999.90;;;;;;;;;;5001296;28;20042;-72
2021/09/25 05:42:00;;;;;;;1124.13;999.90;;;;;;;;;;5000412;28;20033;-72
2021/09/25 05:44:26;;;;;;;1121.88;999.90;;;;;;;;;;5000607;28;20026;-73
2021/09/25 05:46:52;;;;;;;1130.63;999.90;;;;;;;;;;5000444;28;20030;-72
2021/09/25 05:49:18;;;;;;;1128.00;999.90;;;;;;;;;;4999153;28;20458;-73
2021/09/25 05:51:44;;;;;;;1125.57;999.90;;;;;;;;;;5000256;28;20065;-73
2021/09/25 05:54:10;;;;;;;1127.35;999.90;;;;;;;;;;4999209;28;20523;-75
2021/09/25 05:56:36;;;;;;;1127.47;999.90;;;;;;;;;;5015219;28;20033;-73
2021/09/25 05:59:02;;;;;;;1125.05;999.90;;;;;;;;;;5000896;28;20041;-72
2021/09/25 06:01:28;;;;;;;1124.72;999.90;;;;;;;;;;4996577;28;20038;-72
2021/09/25 06:03:54;;;;;;;1124.22;999.90;;;;;;;;;;4999108;28;20553;-72
2021/09/25 06:06:20;;;;;;;1125.63;999.90;;;;;;;;;;5000716;28;20064;-72
2021/09/25 06:08:46;;;;;;;1127.70;999.90;;;;;;;;;;5003582;28;20034;-73
2021/09/25 06:11:12;;;;;;;1127.53;999.90;;;;;;;;;;4996545;28;20038;-72
2021/09/25 06:13:38;;;;;;;1112.15;998.80;;;;;;;;;;5000327;28;20042;-72
2021/09/25 06:16:04;;;;;;;1122.43;999.90;;;;;;;;;;4996255;28;20735;-74
2021/09/25 06:18:30;;;;;;;1124.13;999.90;;;;;;;;;;5000416;28;20083;-75
2021/09/25 06:20:58;;;;;;;1125.63;999.90;;;;;;;;;;5001657;28;20083;-74
2021/09/25 06:23:24;;;;;;;1123.95;999.90;;;;;;;;;;5002468;28;20091;-73
2021/09/25 06:25:50;;;;;;;1124.30;999.90;;;;;;;;;;5003957;28;20029;-75
2021/09/25 06:28:16;;;;;;;1119.90;999.90;;;;;;;;;;5003055;28;20458;-73
2021/09/25 06:30:42;;;;;;;1121.22;999.90;;;;;;;;;;5000422;28;20033;-75
2021/09/25 06:33:08;;;;;;;1120.78;999.90;;;;;;;;;;5004283;28;20030;-75
2021/09/25 06:35:34;;;;;;;1114.75;999.47;;;;;;;;;;5005389;28;20026;-75
2021/09/25 06:38:00;;;;;;;1118.82;999.90;;;;;;;;;;5011888;28;20393;-75
2021/09/25 06:40:26;;;;;;;1117.10;999.90;;;;;;;;;;5007315;28;20048;-75
2021/09/25 06:42:52;;;;;;;1120.78;999.90;;;;;;;;;;5007396;28;20026;-74
2021/09/25 06:45:18;;;;;;;1121.85;999.90;;;;;;;;;;5008122;28;20345;-75
2021/09/25 06:47:44;;;;;;;1130.25;999.90;;;;;;;;;;5007736;28;20022;-74
2021/09/25 06:50:11;;;;;;;1128.97;999.90;;;;;;;;;;5008265;28;20030;-73
2021/09/25 06:52:37;;;;;;;1126.28;999.90;;;;;;;;;;5007227;28;20038;-73
2021/09/25 06:55:03;;;;;;;1128.45;999.90;;;;;;;;;;5011840;28;20049;-74
2021/09/25 06:57:30;;;;;;;1133.82;999.90;;;;;;;;;;5011338;28;20478;-74
2021/09/25 06:59:56;;;;;;;1133.43;999.90;;;;;;;;;;5003495;28;20482;-74
2021/09/25 07:02:23;;;;;;;1133.60;999.90;;;;;;;;;;4993300;28;20032;-74
2021/09/25 07:04:49;;;;;;;1134.65;999.90;;;;;;;;;;4987398;28;20026;-75
2021/09/25 07:07:15;;;;;;;1140.95;999.90;;;;;;;;;;5002594;28;20449;-75
2021/09/25 07:09:43;;;;;;;1142.10;999.90;;;;;;;;;;5006417;28;20080;-73
2021/09/25 07:12:10;;;;;;;1144.68;999.90;;;;;;;;;;5006806;28;20038;-74
2021/09/25 07:14:37;;;;;;;1146.05;999.90;;;;;;;;;;5006404;28;20026;-73
2021/09/25 07:17:03;;;;;;;1142.95;999.90;;;;;;;;;;5006630;28;20036;-73
2021/09/25 07:19:30;;;;;;;1149.00;999.90;;;;;;;;;;5006960;28;20076;-74
2021/09/25 07:21:56;;;;;;;1140.05;999.90;;;;;;;;;;5006168;28;20095;-74
2021/09/25 07:24:22;;;;;;;1151.82;999.90;;;;;;;;;;5007679;28;20022;-73
2021/09/25 07:26:48;;;;;;;1152.22;999.90;;;;;;;;;;5006278;28;20079;-73
2021/09/25 07:29:14;;;;;;;1150.32;999.90;;;;;;;;;;5006473;28;20533;-75
2021/09/25 07:31:40;;;;;;;1147.85;999.90;;;;;;;;;;5003424;28;20041;-75
2021/09/25 07:34:06;;;;;;;1148.18;999.90;;;;;;;;;;5007557;28;20036;-74
2021/09/25 07:36:32;;;;;;;1155.22;999.90;;;;;;;;;;5006286;28;20079;-73
2021/09/25 07:38:58;;;;;;;1154.35;999.90;;;;;;;;;;5005785;28;20470;-75
2021/09/25 07:41:24;;;;;;;1159.68;999.90;;;;;;;;;;5007287;28;20397;-74
2021/09/25 07:43:51;;;;;;;1151.05;999.90;;;;;;;;;;5002390;28;20478;-73
2021/09/25 07:46:17;;;;;;;1148.57;999.90;;;;;;;;;;5007357;28;20092;-73
2021/09/25 07:48:43;;;;;;;1148.60;999.90;;;;;;;;;;5014047;28;20026;-75
2021/09/25 07:51:09;;;;;;;1151.18;999.90;;;;;;;;;;5004517;28;20029;-73
2021/09/25 07:53:35;;;;;;;1152.53;999.90;;;;;;;;;;5004832;28;20129;-74
2021/09/25 07:56:01;;;;;;;1153.65;999.90;;;;;;;;;;5007388;28;20026;-73
2021/09/25 07:58:27;;;;;;;1150.72;999.90;;;;;;;;;;5008427;28;20038;-73
2021/09/25 08:00:53;;;;;;;1158.45;999.90;;;;;;;;;;5004291;28;20113;-73
2021/09/25 08:03:19;;;;;;;1146.93;999.90;;;;;;;;;;5006289;28;20444;-72
2021/09/25 08:05:46;;;;;;;1154.97;999.90;;;;;;;;;;5001274;28;20465;-75
2021/09/25 08:08:12;;;;;;;1152.55;999.90;;;;;;;;;;5003425;28;20382;-73
2021/09/25 08:10:38;;;;;;;1158.72;999.90;;;;;;;;;;5005511;28;20091;-73
2021/09/25 08:13:04;;;;;;;1157.47;999.90;;;;;;;;;;4994416;28;20770;-74
2021/09/25 08:15:30;;;;;;;1157.25;999.90;;;;;;;;;;4998054;28;20034;-73
2021/09/25 08:17:56;;;;;;;1160.55;999.90;;;;;;;;;;5003950;28;20482;-74
2021/09/25 08:20:23;;;;;;;1164.00;999.90;;;;;;;;;;5009334;28;20496;-72
2021/09/25 08:22:50;;;;;;;1160.93;999.90;;;;;;;;;;5006529;28;20041;-73
2021/09/25 08:25:16;;;;;;;1161.57;999.90;;;;;;;;;;5005924;28;20532;-73
2021/09/25 08:27:47;;;;;;;1161.15;999.90;;;;;;;;;;5005670;28;20136;-73
2021/09/25 08:30:13;;;;;;;;;;;;;;;;;;5007440;28;20018;-74
2021/09/25 08:32:39;;;;;;;1140.40;999.90;;;;;;;;;;5002375;28;19909;-73
2021/09/25 08:35:07;;;;;;;1160.63;999.90;;;;;;;;;;5007017;28;20101;-73
2021/09/25 08:37:34;;;;;;;1166.30;999.90;;;;;;;;;;5014302;28;20021;-74
2021/09/25 08:40:00;;;;;;;1166.93;999.90;;;;;;;;;;5027283;28;20029;-73
2021/09/25 08:42:26;;;;;;;1172.13;999.90;;;;;;;;;;5014482;28;20474;-73
2021/09/25 08:44:54;;;;;;;1170.07;999.90;;;;;;;;;;5010413;28;20030;-74
2021/09/25 08:47:21;;;;;;;1169.20;999.90;;;;;;;;;;5009186;28;20026;-72
2021/09/25 08:49:47;;;;;;;1174.25;999.90;;;;;;;;;;5010679;28;20478;-73
2021/09/25 08:52:13;;;;;;;1171.20;999.90;;;;;;;;;;5009164;28;20026;-72
2021/09/25 08:54:39;;;;;;;1170.82;999.90;;;;;;;;;;5009003;28;20176;-74
2021/09/25 08:57:05;;;;;;;1165.22;999.90;;;;;;;;;;5008994;28;20394;-74
2021/09/25 08:59:31;;;;;;;1171.97;999.90;;;;;;;;;;5010561;28;20532;-75
2021/09/25 09:02:09;;;;;;;1167.18;999.90;;;;;;;;;;5006559;28;20034;-74
2021/09/25 09:04:42;;;;;;;1171.07;999.90;;;;;;;;;;5009315;28;20437;-75
2021/09/25 09:07:12;;;;;;;1165.22;999.90;;;;;;;;;;5009874;28;20033;-72
2021/09/25 09:09:43;;;;;;;1165.78;999.90;;;;;;;;;;5008388;28;20060;-72
2021/09/25 09:12:08;;;;;;;;;;;;;;;;;;5022490;28;20017;-73
2021/09/25 09:14:45;;;;;;;1139.55;999.90;;;;;;;;;;5028391;28;20404;-73
2021/09/25 09:17:23;;;;;;;1154.18;999.90;;;;;;;;;;5010677;28;20137;-73
2021/09/25 09:19:49;;;;;;;1161.07;999.90;;;;;;;;;;5009588;28;20530;-72
2021/09/25 09:22:20;;;;;;;1160.82;999.90;;;;;;;;;;5009857;28;20022;-72
2021/09/25 09:24:45;;;;;;;;;;;;;;;;;;5009179;28;20030;-72
2021/09/25 09:27:22;;;;;;;1141.72;999.90;;;;;;;;;;5009162;28;19910;-73
2021/09/25 09:29:48;;;;;;;1151.28;999.90;;;;;;;;;;5008542;28;20088;-74
2021/09/25 09:32:14;;;;;;;1174.75;999.90;;;;;;;;;;5007497;28;20338;-72
2021/09/25 09:34:42;;;;;;;1169.57;999.90;;;;;;;;;;5008547;28;20536;-73
2021/09/25 09:37:18;;;;;;;1171.13;999.90;;;;;;;;;;5007747;28;20084;-75
2021/09/25 09:39:44;;;;;;;1171.47;999.90;;;;;;;;;;5007739;28;20045;-72
2021/09/25 09:42:10;;;;;;;1166.93;999.90;;;;;;;;;;5006274;28;20026;-73
2021/09/25 09:44:38;;;;;;;1175.30;999.90;;;;;;;;;;5008232;28;20056;-74
2021/09/25 09:47:06;;;;;;;1174.95;999.90;;;;;;;;;;5010923;28;20105;-74
2021/09/25 09:49:36;;;;;;;1176.32;999.90;;;;;;;;;;5010243;28;20465;-73
2021/09/25 09:52:02;;;;;;;;;;;;;;;;;;5007327;28;20026;-73
2021/09/25 09:54:33;;;;;;;1159.30;999.90;;;;;;;;;;5007822;28;19917;-72
2021/09/25 09:57:00;;;;;;;1164.65;999.90;;;;;;;;;;5005730;28;20028;-73
2021/09/25 09:59:27;;;;;;;1170.45;999.90;;;;;;;;;;5008125;28;20036;-72
2021/09/25 10:01:53;;;;;;;1170.50;999.90;;;;;;;;;;5009602;28;20033;-72
2021/09/25 10:04:20;;;;;;;1169.05;999.90;;;;;;;;;;5010591;28;20117;-72
2021/09/25 10:06:47;;;;;;;1166.32;999.90;;;;;;;;;;5010131;28;20359;-72
2021/09/25 10:09:14;;;;;;;1171.18;999.90;;;;;;;;;;5010013;28;20118;-75
2021/09/25 10:11:41;;;;;;;1165.45;999.90;;;;;;;;;;5010469;28;20057;-75
2021/09/25 10:14:08;;;;;;;1169.63;999.90;;;;;;;;;;5012064;28;20034;-76
2021/09/25 10:16:34;;;;;;;1168.20;999.90;;;;;;;;;;5014031;28;20033;-76
2021/09/25 10:19:01;;;;;;;1170.53;999.90;;;;;;;;;;5008587;28;20030;-75
2021/09/25 10:21:28;;;;;;;1173.32;999.90;;;;;;;;;;5013770;28;20026;-76
2021/09/25 10:24:05;;;;;;;1179.25;999.90;;;;;;;;;;5011925;28;20029;-75
2021/09/25 10:26:32;;;;;;;1176.80;999.90;;;;;;;;;;5011195;28;20030;-75
2021/09/25 10:28:59;;;;;;;1178.07;999.90;;;;;;;;;;5007948;28;20034;-77
2021/09/25 10:31:26;;;;;;;1173.82;999.90;;;;;;;;;;5007030;28;20029;-76
2021/09/25 10:34:05;;;;;;;1183.72;999.90;;;;;;;;;;5010688;28;20026;-76
2021/09/25 10:36:40;;;;;;;1180.85;999.90;;;;;;;;;;5010590;28;20026;-75
2021/09/25 10:39:24;;;;;;;1178.53;999.90;;;;;;;;;;5012989;28;20314;-76
2021/09/25 10:41:56;;;;;;;1178.65;999.90;;;;;;;;;;5006014;28;20038;-76
2021/09/25 10:44:26;;;;;;;1186.80;999.90;;;;;;;;;;5007997;28;20014;-76
2021/09/25 10:47:02;;;;;;;1184.72;999.90;;;;;;;;;;5006914;28;20034;-77
2021/09/25 10:49:39;;;;;;;1182.78;999.90;;;;;;;;;;5000085;28;20033;-77
2021/09/25 10:52:05;;;;;;;1185.40;999.90;;;;;;;;;;5006885;28;20537;-76
2021/09/25 10:54:31;;;;;;;1178.78;999.90;;;;;;;;;;5022997;28;20057;-76
2021/09/25 10:56:58;;;;;;;1182.57;999.90;;;;;;;;;;5016087;28;20379;-76
2021/09/25 10:59:24;;;;;;;1187.75;999.90;;;;;;;;;;5008505;28;20034;-76
2021/09/25 11:01:54;;;;;;;1189.55;999.90;;;;;;;;;;5004792;28;20034;-75
2021/09/25 11:04:24;;;;;;;1187.55;999.90;;;;;;;;;;5008299;28;20100;-75
2021/09/25 11:06:56;;;;;;;1193.72;999.90;;;;;;;;;;5006813;28;20381;-76
2021/09/25 11:09:27;;;;;;;1193.85;999.90;;;;;;;;;;5008252;28;20033;-76
2021/09/25 11:11:54;;;;;;;1198.68;999.90;;;;;;;;;;5010115;28;20064;-76
2021/09/25 11:14:23;;;;;;;1198.75;999.90;;;;;;;;;;5012741;28;20048;-74
2021/09/25 11:17:14;;;;;;;1198.18;999.90;;;;;;;;;;5011870;28;20030;-76
2021/09/25 11:19:50;;;;;;;1196.53;999.90;;;;;;;;;;5011979;28;20026;-76
2021/09/25 11:22:16;;;;;;;1194.43;999.90;;;;;;;;;;5010069;28;20116;-75
2021/09/25 11:25:03;;;;;;;1200.95;999.90;;;;;;;;;;5013134;28;20435;-75
2021/09/25 11:27:30;;;;;;;1197.35;999.90;;;;;;;;;;5010614;28;20038;-75
2021/09/25 11:30:01;;;;;;;1205.57;999.90;;;;;;;;;;5012835;28;20121;-76
2021/09/25 11:32:32;;;;;;;1195.47;999.90;;;;;;;;;;5005852;28;20030;-78
2021/09/25 11:34:58;;;;;;;1199.43;999.90;;;;;;;;;;5006454;28;20108;-76
2021/09/25 11:37:25;;;;;;;1215.35;999.90;;;;;;;;;;5005708;28;20560;-76
2021/09/25 11:39:51;;;;;;;1213.35;999.90;;;;;;;;;;5007506;28;20022;-76
2021/09/25 11:42:20;;;;;;;1216.75;999.90;;;;;;;;;;5006805;28;20033;-77
2021/09/25 11:44:51;;;;;;;1217.15;999.90;;;;;;;;;;5015909;28;20033;-76
2021/09/25 11:47:23;;;;;;;1217.28;999.90;;;;;;;;;;5028101;28;20068;-77
2021/09/25 11:49:49;;;;;;;1214.75;999.90;;;;;;;;;;5026998;28;20052;-76
2021/09/25 11:52:15;;;;;;;1219.53;999.90;;;;;;;;;;5017551;28;20030;-76
2021/09/25 11:54:41;;;;;;;1216.28;999.90;;;;;;;;;;5006897;28;20376;-76
2021/09/25 11:57:18;;;;;;;1220.82;999.90;;;;;;;;;;5007097;28;20417;-75
2021/09/25 11:59:44;;;;;;;1214.68;999.90;;;;;;;;;;5007003;28;20125;-76
2021/09/25 12:02:10;;;;;;;1219.45;999.90;;;;;;;;;;5019050;28;20067;-76
2021/09/25 12:04:40;;;;;;;1220.97;999.90;;;;;;;;;;5016046;28;20026;-76
2021/09/25 12:07:06;;;;;;;1216.03;999.90;;;;;;;;;;5007349;28;20041;-75
2021/09/25 12:09:42;;;;;;;1229.28;999.90;;;;;;;;;;5006638;28;20030;-74
2021/09/25 12:12:08;;;;;;;1231.45;999.90;;;;;;;;;;5008570;28;20030;-75
2021/09/25 12:14:46;;;;;;;1237.50;999.90;;;;;;;;;;5009455;28;20037;-76
2021/09/25 12:17:16;;;;;;;1243.30;999.90;;;;;;;;;;5011401;28;20033;-77
2021/09/25 12:19:46;;;;;;;1235.82;999.90;;;;;;;;;;5027783;28;20036;-77
2021/09/25 12:22:28;;;;;;;1243.53;999.90;;;;;;;;;;5023298;28;20029;-78
2021/09/25 12:24:54;;;;;;;1240.85;999.90;;;;;;;;;;5010357;28;20026;-75
2021/09/25 12:27:27;;;;;;;1242.22;999.90;;;;;;;;;;5009897;28;20069;-77
2021/09/25 12:29:53;;;;;;;1244.22;999.90;;;;;;;;;;5009316;28;20029;-76
2021/09/25 12:32:20;;;;;;;1243.53;999.90;;;;;;;;;;5020560;28;20033;-77
2021/09/25 12:34:50;;;;;;;1253.47;999.90;;;;;;;;;;5013393;28;20078;-78
2021/09/25 12:37:16;;;;;;;1248.72;999.90;;;;;;;;;;5011969;28;20367;-77
2021/09/25 12:39:44;;;;;;;1252.55;999.90;;;;;;;;;;5010409;28;20030;-77
2021/09/25 12:42:21;;;;;;;1256.47;999.90;;;;;;;;;;5009470;28;20375;-78
2021/09/25 12:44:47;;;;;;;1256.80;999.90;;;;;;;;;;5011788;28;20026;-75
2021/09/25 12:47:13;;;;;;;1254.35;999.90;;;;;;;;;;5010578;28;20072;-76
2021/09/25 12:49:39;;;;;;;1262.40;999.90;;;;;;;;;;5010354;28;20040;-77
2021/09/25 12:52:08;;;;;;;1263.50;999.90;;;;;;;;;;5016152;28;20307;-77
2021/09/25 12:54:36;;;;;;;1261.22;999.90;;;;;;;;;;5017979;28;20569;-76
2021/09/25 12:57:21;;;;;;;1263.10;999.90;;;;;;;;;;5009762;28;20490;-77
2021/09/25 12:59:49;;;;;;;1265.57;999.90;;;;;;;;;;5009781;28;20026;-78
2021/09/25 13:02:16;;;;;;;1269.20;999.90;;;;;;;;;;5009113;28;20486;-76
2021/09/25 13:04:46;;;;;;;1267.35;999.90;;;;;;;;;;5009775;28;20021;-76
2021/09/25 13:07:12;;;;;;;1265.57;999.90;;;;;;;;;;5010367;28;20030;-77
2021/09/25 13:09:46;;;;;;;1263.72;999.90;;;;;;;;;;5012782;28;20026;-77
2021/09/25 13:12:20;;;;;;;1256.75;999.90;;;;;;;;;;5009748;28;20065;-76
2021/09/25 13:14:59;;;;;;;1257.57;999.90;;;;;;;;;;5009820;28;20075;-78
2021/09/25 13:17:26;;;;;;;1248.90;999.90;;;;;;;;;;5011438;28;20446;-77
2021/09/25 13:19:53;;;;;;;1255.38;999.90;;;;;;;;;;5009950;28;20541;-77
2021/09/25 13:22:19;;;;;;;1251.15;999.90;;;;;;;;;;5009819;28;20161;-77
2021/09/25 13:24:45;;;;;;;1256.60;999.90;;;;;;;;;;5009783;28;20022;-77
2021/09/25 13:27:11;;;;;;;1257.22;999.90;;;;;;;;;;5012095;28;20018;-76
2021/09/25 13:29:38;;;;;;;1262.20;999.90;;;;;;;;;;5009522;28;20049;-77
2021/09/25 13:32:04;;;;;;;1253.13;999.90;;;;;;;;;;5008186;28;20030;-77
2021/09/25 13:34:30;;;;;;;1250.07;999.90;;;;;;;;;;5009528;28;20034;-76
2021/09/25 13:37:00;;;;;;;1256.70;999.90;;;;;;;;;;5010393;28;20477;-76
2021/09/25 13:39:27;;;;;;;1259.55;999.90;;;;;;;;;;5009848;28;20041;-76
2021/09/25 13:41:53;;;;;;;1256.03;999.90;;;;;;;;;;5009503;28;20037;-75